createdAt,value
2018-12-06T00:02:10.440Z,24.17
2018-12-06T00:04:39.060Z,24.40
2018-12-06T00:07:07.619Z,23.77
2018-12-06T00:09:36.205Z,28.77
2018-12-06T00:12:04.846Z,21.50
2018-12-06T00:14:33.445Z,23.97
2018-12-06T00:17:02.058Z,26.80
2018-12-06T00:19:30.665Z,27.50
2018-12-06T00:21:59.246Z,22.67
2018-12-06T00:24:27.894Z,22.10
2018-12-06T00:26:56.646Z,24.17
2018-12-06T00:29:25.259Z,20.67
2018-12-06T00:31:53.867Z,20.73
2018-12-06T00:34:22.495Z,23.70
2018-12-06T00:36:51.052Z,23.03
2018-12-06T00:39:19.638Z,25.33
2018-12-06T00:41:48.251Z,23.37
2018-12-06T00:44:16.941Z,27.47
2018-12-06T00:46:45.558Z,24.43
2018-12-06T00:49:14.152Z,25.83
2018-12-06T00:51:42.755Z,26.53
2018-12-06T00:54:11.314Z,23.27
2018-12-06T00:56:40.021Z,23.53
2018-12-06T00:59:08.610Z,21.03
2018-12-06T01:01:37.215Z,23.60
2018-12-06T01:04:05.809Z,22.53
2018-12-06T01:06:34.381Z,23.97
2018-12-06T01:09:03.065Z,22.00
2018-12-06T01:11:31.777Z,23.33
2018-12-06T01:14:00.377Z,24.00
2018-12-06T01:16:28.903Z,25.27
2018-12-06T01:18:57.565Z,22.93
2018-12-06T01:21:26.131Z,25.50
2018-12-06T01:23:54.803Z,23.20
2018-12-06T01:26:23.389Z,25.13
2018-12-06T01:28:52.037Z,25.53
2018-12-06T01:31:20.798Z,23.97
2018-12-06T01:33:49.380Z,23.03
2018-12-06T01:36:18.041Z,25.80
2018-12-06T01:38:46.565Z,23.50
2018-12-06T01:41:15.115Z,23.13
2018-12-06T01:43:43.652Z,23.07
2018-12-06T01:46:12.197Z,25.90
2018-12-06T01:48:41.195Z,21.10
2018-12-06T01:51:09.797Z,24.90
2018-12-06T01:53:38.365Z,23.40
2018-12-06T01:56:06.966Z,24.47
2018-12-06T01:58:35.543Z,25.70
2018-12-06T02:01:04.198Z,23.50
2018-12-06T02:03:32.785Z,24.93
2018-12-06T02:06:01.380Z,27.93
2018-12-06T02:08:29.966Z,25.97
2018-12-06T02:10:58.685Z,27.97
2018-12-06T02:13:27.264Z,23.93
2018-12-06T02:15:55.852Z,25.43
2018-12-06T02:18:24.548Z,29.23
2018-12-06T02:20:53.144Z,24.60
2018-12-06T02:23:21.871Z,23.67
2018-12-06T02:25:50.480Z,23.40
2018-12-06T02:28:19.134Z,25.80
2018-12-06T02:30:47.708Z,23.33
2018-12-06T02:33:16.433Z,28.20
2018-12-06T02:35:45.061Z,26.13
2018-12-06T02:38:13.576Z,22.87
2018-12-06T02:40:42.106Z,26.13
2018-12-06T02:43:10.683Z,30.30
2018-12-06T02:45:39.349Z,23.20
2018-12-06T02:48:07.965Z,27.20
2018-12-06T02:50:36.523Z,28.80
2018-12-06T02:53:05.127Z,24.93
2018-12-06T02:55:33.652Z,26.37
2018-12-06T02:58:02.174Z,25.40
2018-12-06T03:00:30.717Z,24.67
2018-12-06T03:02:59.276Z,27.17
2018-12-06T03:05:27.953Z,24.97
2018-12-06T03:07:56.555Z,26.53
2018-12-06T03:10:25.170Z,29.87
2018-12-06T03:12:53.831Z,25.80
2018-12-06T03:15:22.559Z,25.13
2018-12-06T03:17:51.163Z,22.70
2018-12-06T03:20:19.724Z,23.43
2018-12-06T03:22:48.288Z,25.13
2018-12-06T03:25:16.878Z,25.37
2018-12-06T03:27:45.465Z,27.33
2018-12-06T03:30:14.060Z,23.20
2018-12-06T03:32:42.606Z,24.07
2018-12-06T03:35:11.166Z,24.77
2018-12-06T03:37:39.760Z,23.73
2018-12-06T03:40:08.350Z,24.97
2018-12-06T03:42:36.981Z,23.33
2018-12-06T03:45:05.922Z,25.90
2018-12-06T03:47:34.481Z,24.00
2018-12-06T03:50:03.356Z,26.10
2018-12-06T03:52:32.051Z,23.67
2018-12-06T03:55:00.662Z,28.60
2018-12-06T03:57:33.502Z,24.93
2018-12-06T04:00:02.289Z,29.93
2018-12-06T04:02:31.180Z,28.13
2018-12-06T04:04:59.836Z,28.93
2018-12-06T04:07:28.503Z,31.77
2018-12-06T04:09:57.149Z,33.30
2018-12-06T04:12:25.842Z,35.93
2018-12-06T04:14:54.408Z,29.50
2018-12-06T04:17:23.088Z,36.33
2018-12-06T04:19:51.656Z,31.13
2018-12-06T04:22:20.279Z,33.80
2018-12-06T04:24:48.813Z,37.37
2018-12-06T04:27:17.445Z,31.97
2018-12-06T04:29:46.157Z,33.33
2018-12-06T04:32:14.912Z,34.93
2018-12-06T04:34:43.531Z,36.17
2018-12-06T04:37:12.549Z,36.57
2018-12-06T04:39:41.240Z,36.67
2018-12-06T04:42:09.781Z,36.13
2018-12-06T04:44:38.451Z,36.30
2018-12-06T04:47:07.104Z,34.10
2018-12-06T04:49:35.697Z,34.13
2018-12-06T04:52:04.496Z,34.20
2018-12-06T04:54:33.225Z,31.20
2018-12-06T04:57:02.096Z,38.07
2018-12-06T04:59:31.031Z,35.73
2018-12-06T05:01:59.637Z,30.30
2018-12-06T05:04:28.206Z,35.03
2018-12-06T05:06:56.989Z,36.07
2018-12-06T05:09:25.677Z,30.50
2018-12-06T05:11:54.477Z,34.17
2018-12-06T05:14:23.160Z,31.73
2018-12-06T05:16:51.819Z,37.37
2018-12-06T05:19:20.368Z,30.97
2018-12-06T05:21:48.948Z,30.27
2018-12-06T05:24:17.611Z,36.38
2018-12-06T05:26:46.504Z,31.67
2018-12-06T05:29:15.072Z,34.60
2018-12-06T05:31:43.686Z,39.23
2018-12-06T05:34:12.305Z,36.60
2018-12-06T05:36:40.825Z,33.67
2018-12-06T05:39:09.433Z,31.57
2018-12-06T05:41:38.119Z,31.87
2018-12-06T05:44:06.771Z,31.77
2018-12-06T05:46:35.431Z,38.13
2018-12-06T05:49:04.204Z,36.37
2018-12-06T05:51:32.778Z,32.20
2018-12-06T05:54:01.357Z,31.53
2018-12-06T05:56:29.969Z,30.67
2018-12-06T05:58:58.522Z,35.80
2018-12-06T06:01:27.092Z,33.00
2018-12-06T06:03:55.897Z,37.40
2018-12-06T06:06:24.556Z,33.97
2018-12-06T06:08:53.574Z,36.03
2018-12-06T06:11:22.908Z,33.37
2018-12-06T06:13:52.268Z,34.13
2018-12-06T06:16:20.898Z,32.87
2018-12-06T06:18:49.708Z,33.83
2018-12-06T06:21:18.378Z,33.70
2018-12-06T06:23:47.122Z,34.57
2018-12-06T06:26:32.066Z,36.73
2018-12-06T06:29:00.713Z,34.57
2018-12-06T06:31:29.268Z,33.20
2018-12-06T06:33:57.843Z,32.73
2018-12-06T06:36:26.419Z,34.50
2018-12-06T06:38:55.021Z,34.47
2018-12-06T06:41:23.775Z,35.83
2018-12-06T06:43:52.303Z,34.37
2018-12-06T06:46:21.094Z,32.47
2018-12-06T06:48:49.731Z,34.03
2018-12-06T06:51:18.316Z,35.07
2018-12-06T06:53:47.173Z,32.00
2018-12-06T06:56:15.834Z,39.88
2018-12-06T06:58:45.443Z,31.87
2018-12-06T07:01:14.104Z,39.20
2018-12-06T07:03:42.814Z,36.60
2018-12-06T07:06:11.655Z,39.30
2018-12-06T07:08:40.313Z,37.10
2018-12-06T07:11:09.067Z,33.33
2018-12-06T07:13:37.632Z,36.50
2018-12-06T07:16:06.298Z,30.83
2018-12-06T07:18:34.955Z,36.90
2018-12-06T07:21:03.640Z,37.57
2018-12-06T07:23:32.271Z,31.93
2018-12-06T07:26:00.782Z,31.60
2018-12-06T07:28:29.355Z,32.47
2018-12-06T07:30:57.936Z,35.80
2018-12-06T07:33:26.598Z,41.80
2018-12-06T07:35:55.303Z,39.47
2018-12-06T07:38:24.107Z,36.80
2018-12-06T07:40:52.741Z,34.97
2018-12-06T07:43:22.929Z,36.77
2018-12-06T07:45:53.795Z,39.47
2018-12-06T07:48:22.396Z,38.30
2018-12-06T07:50:51.049Z,39.37
2018-12-06T07:53:19.847Z,34.10
2018-12-06T07:55:48.439Z,36.80
2018-12-06T07:58:17.022Z,43.10
2018-12-06T08:00:45.598Z,37.37
2018-12-06T08:03:14.314Z,35.50
2018-12-06T08:05:42.941Z,31.60
2018-12-06T08:08:11.574Z,32.67
2018-12-06T08:10:40.180Z,32.80
2018-12-06T08:13:08.847Z,37.90
2018-12-06T08:15:37.435Z,35.50
2018-12-06T08:18:06.069Z,38.97
2018-12-06T08:20:35.878Z,33.50
2018-12-06T08:23:04.417Z,33.47
2018-12-06T08:25:35.432Z,37.33
2018-12-06T08:28:05.600Z,35.23
2018-12-06T08:30:34.779Z,29.37
2018-12-06T08:33:04.095Z,31.20
2018-12-06T08:35:32.800Z,34.40
2018-12-06T08:38:01.483Z,31.53
2018-12-06T08:40:30.294Z,30.03
2018-12-06T08:42:59.004Z,32.77
2018-12-06T08:45:27.560Z,37.67
2018-12-06T08:47:56.276Z,33.13
2018-12-06T08:50:25.081Z,38.40
2018-12-06T08:52:53.919Z,32.90
2018-12-06T08:55:23.563Z,39.03
2018-12-06T08:57:52.262Z,37.27
2018-12-06T09:00:20.876Z,30.53
2018-12-06T09:02:49.507Z,39.43
2018-12-06T09:05:18.154Z,31.10
2018-12-06T09:07:46.915Z,32.30
2018-12-06T09:10:15.812Z,34.23
2018-12-06T09:12:44.530Z,35.27
2018-12-06T09:15:13.278Z,35.80
2018-12-06T09:17:42.153Z,33.50
2018-12-06T09:20:10.819Z,34.07
2018-12-06T09:22:39.805Z,41.40
2018-12-06T09:25:08.453Z,46.90
2018-12-06T09:27:37.119Z,31.03
2018-12-06T09:30:06.759Z,35.57
2018-12-06T09:32:35.596Z,42.50
2018-12-06T09:35:04.591Z,35.40
2018-12-06T09:37:33.377Z,36.33
2018-12-06T09:40:02.066Z,37.10
2018-12-06T09:42:30.797Z,37.63
2018-12-06T09:44:59.555Z,37.00
2018-12-06T09:47:28.176Z,37.40
2018-12-06T09:49:57.180Z,35.27
2018-12-06T09:52:25.869Z,38.97
2018-12-06T09:54:54.667Z,34.70
2018-12-06T09:57:23.283Z,37.80
2018-12-06T09:59:52.638Z,34.97
2018-12-06T10:02:21.880Z,36.00
2018-12-06T10:04:50.723Z,33.27
2018-12-06T10:07:19.605Z,35.07
2018-12-06T10:09:48.404Z,36.13
2018-12-06T10:12:16.962Z,28.93
2018-12-06T10:14:45.772Z,32.90
2018-12-06T10:17:14.687Z,34.23
2018-12-06T10:19:43.443Z,30.23
2018-12-06T10:22:12.277Z,35.47
2018-12-06T10:24:41.075Z,34.13
2018-12-06T10:27:09.707Z,33.37
2018-12-06T10:29:38.313Z,29.87
2018-12-06T10:32:07.133Z,34.57
2018-12-06T10:34:36.008Z,31.97
2018-12-06T10:37:05.035Z,31.20
2018-12-06T10:39:33.865Z,33.77
2018-12-06T10:42:02.500Z,36.80
2018-12-06T10:44:31.628Z,35.43
2018-12-06T10:47:00.284Z,30.27
2018-12-06T10:49:29.122Z,34.73
2018-12-06T10:51:57.700Z,29.20
2018-12-06T10:54:26.328Z,32.37
2018-12-06T10:56:54.843Z,32.67
2018-12-06T10:59:23.504Z,33.13
2018-12-06T11:01:57.397Z,32.73
2018-12-06T11:04:30.294Z,34.20
2018-12-06T11:06:58.946Z,36.40
2018-12-06T11:09:27.713Z,36.03
2018-12-06T11:11:56.406Z,32.97
2018-12-06T11:14:25.109Z,33.10
2018-12-06T11:16:53.802Z,30.33
2018-12-06T11:19:22.343Z,33.73
2018-12-06T11:21:50.982Z,34.87
2018-12-06T11:24:19.978Z,30.87
2018-12-06T11:26:48.845Z,32.27
2018-12-06T11:29:17.583Z,27.90
2018-12-06T11:31:46.142Z,33.30
2018-12-06T11:34:14.850Z,28.73
2018-12-06T11:36:43.994Z,34.00
2018-12-06T11:39:12.531Z,31.77
2018-12-06T11:41:43.282Z,27.80
2018-12-06T11:44:12.171Z,29.00
2018-12-06T11:46:40.728Z,31.37
2018-12-06T11:49:09.483Z,31.97
2018-12-06T11:51:38.172Z,28.77
2018-12-06T11:54:06.908Z,27.80
2018-12-06T11:56:35.443Z,26.63
2018-12-06T11:59:04.346Z,27.87
2018-12-06T12:01:33.138Z,33.87
2018-12-06T12:04:01.695Z,26.63
2018-12-06T12:06:30.419Z,30.13
2018-12-06T12:08:59.032Z,27.77
2018-12-06T12:11:27.638Z,29.27
2018-12-06T12:13:56.611Z,28.93
2018-12-06T12:16:25.595Z,26.93
2018-12-06T12:18:54.179Z,29.90
2018-12-06T12:21:22.874Z,27.87
2018-12-06T12:23:51.479Z,33.23
2018-12-06T12:26:20.065Z,27.07
2018-12-06T12:28:49.103Z,28.37
2018-12-06T12:31:17.963Z,27.77
2018-12-06T12:33:46.596Z,26.17
2018-12-06T12:36:15.157Z,28.63
2018-12-06T12:38:43.825Z,27.37
2018-12-06T12:41:12.455Z,26.90
2018-12-06T12:43:41.109Z,26.03
2018-12-06T12:46:09.952Z,29.33
2018-12-06T12:48:38.632Z,26.27
2018-12-06T12:51:07.541Z,26.63
2018-12-06T12:53:36.426Z,26.27
2018-12-06T12:56:05.059Z,25.17
2018-12-06T12:58:33.816Z,29.63
2018-12-06T13:01:02.642Z,28.20
2018-12-06T13:03:31.378Z,26.47
2018-12-06T13:06:00.679Z,25.20
2018-12-06T13:08:30.134Z,27.03
2018-12-06T13:10:59.283Z,28.23
2018-12-06T13:13:27.967Z,26.27
2018-12-06T13:15:56.756Z,26.37
2018-12-06T13:18:25.404Z,24.90
2018-12-06T13:20:54.069Z,29.03
2018-12-06T13:23:22.816Z,31.17
2018-12-06T13:25:51.405Z,30.37
2018-12-06T13:28:20.003Z,26.57
2018-12-06T13:30:48.650Z,28.37
2018-12-06T13:33:17.231Z,29.13
2018-12-06T13:35:46.454Z,26.70
2018-12-06T13:38:15.353Z,26.10
2018-12-06T13:40:44.555Z,25.50
2018-12-06T13:43:13.232Z,26.87
2018-12-06T13:45:41.811Z,29.50
2018-12-06T13:48:10.499Z,28.47
2018-12-06T13:50:39.223Z,28.87
2018-12-06T13:53:08.047Z,25.13
2018-12-06T13:55:37.007Z,30.63
2018-12-06T13:58:09.623Z,25.13
2018-12-06T14:00:38.538Z,27.33
2018-12-06T14:03:07.369Z,27.83
2018-12-06T14:05:35.972Z,29.93
2018-12-06T14:08:04.691Z,32.33
2018-12-06T14:10:33.248Z,28.53
2018-12-06T14:13:01.816Z,32.47
2018-12-06T14:15:30.565Z,32.33
2018-12-06T14:18:00.542Z,33.20
2018-12-06T14:20:29.133Z,33.00
2018-12-06T14:22:57.734Z,34.97
2018-12-06T14:25:26.330Z,32.37
2018-12-06T14:27:54.991Z,31.00
2018-12-06T14:30:23.633Z,30.73
2018-12-06T14:32:52.198Z,32.73
2018-12-06T14:35:20.818Z,35.90
2018-12-06T14:37:49.401Z,30.80
2018-12-06T14:40:17.945Z,32.20
2018-12-06T14:42:46.537Z,29.57
2018-12-06T14:45:15.085Z,31.27
2018-12-06T14:47:43.791Z,33.20
2018-12-06T14:50:12.672Z,32.73
2018-12-06T14:52:41.192Z,31.77
2018-12-06T14:55:09.900Z,29.83
2018-12-06T14:57:38.452Z,33.93
2018-12-06T15:00:09.316Z,40.23
2018-12-06T15:02:37.926Z,31.53
2018-12-06T15:05:08.712Z,33.70
2018-12-06T15:07:37.338Z,38.30
2018-12-06T15:10:06.812Z,36.83
2018-12-06T15:12:35.391Z,34.37
2018-12-06T15:15:04.422Z,36.50
2018-12-06T15:17:33.022Z,33.80
2018-12-06T15:20:01.563Z,36.30
2018-12-06T15:22:30.160Z,32.80
2018-12-06T15:24:59.098Z,35.97
2018-12-06T15:27:28.416Z,32.13
2018-12-06T15:29:57.638Z,34.43
2018-12-06T15:32:26.434Z,33.60
2018-12-06T15:34:54.968Z,32.30
2018-12-06T15:37:23.886Z,34.03
2018-12-06T15:39:52.455Z,34.63
2018-12-06T15:42:21.002Z,33.30
2018-12-06T15:44:49.691Z,37.87
2018-12-06T15:47:18.391Z,33.27
2018-12-06T15:49:47.177Z,37.80
2018-12-06T15:52:16.182Z,39.27
2018-12-06T15:54:44.996Z,34.90
2018-12-06T15:57:14.711Z,43.30
2018-12-06T15:59:45.158Z,34.80
2018-12-06T16:02:14.896Z,36.30
2018-12-06T16:04:44.045Z,36.77
2018-12-06T16:07:13.248Z,30.83
2018-12-06T16:09:42.450Z,28.47
2018-12-06T16:12:11.873Z,29.87
2018-12-06T16:14:41.003Z,29.57
2018-12-06T16:17:10.150Z,28.30
2018-12-06T16:19:39.799Z,28.13
2018-12-06T16:22:09.813Z,27.30
2018-12-06T16:24:38.811Z,28.27
2018-12-06T16:27:08.181Z,27.03
2018-12-06T16:29:37.491Z,29.17
2018-12-06T16:32:07.176Z,25.50
2018-12-06T16:34:35.890Z,27.20
2018-12-06T16:37:05.210Z,27.00
2018-12-06T16:39:34.104Z,23.97
2018-12-06T16:42:03.297Z,25.40
2018-12-06T16:44:31.927Z,25.87
2018-12-06T16:47:00.777Z,32.47
2018-12-06T16:49:30.773Z,29.23
2018-12-06T16:52:00.705Z,30.47
2018-12-06T16:54:31.283Z,25.73
2018-12-06T16:57:00.147Z,29.23
2018-12-06T16:59:28.730Z,26.67
2018-12-06T17:01:57.294Z,27.40
2018-12-06T17:04:26.032Z,27.17
2018-12-06T17:06:54.632Z,32.23
2018-12-06T17:09:23.184Z,28.77
2018-12-06T17:11:51.866Z,22.60
2018-12-06T17:14:20.625Z,24.70
2018-12-06T17:16:49.387Z,26.33
2018-12-06T17:19:18.112Z,25.00
2018-12-06T17:21:46.643Z,27.10
2018-12-06T17:24:15.410Z,25.23
2018-12-06T17:26:43.944Z,24.00
2018-12-06T17:29:12.540Z,24.80
2018-12-06T17:31:41.193Z,24.93
2018-12-06T17:34:09.742Z,27.97
2018-12-06T17:36:38.379Z,25.67
2018-12-06T17:39:08.486Z,26.10
2018-12-06T17:41:37.211Z,23.67
2018-12-06T17:44:05.954Z,26.07
2018-12-06T17:46:34.631Z,23.93
2018-12-06T17:49:04.121Z,24.27
2018-12-06T17:51:32.691Z,24.97
2018-12-06T17:54:01.203Z,26.53
2018-12-06T17:56:29.865Z,21.27
2018-12-06T17:58:58.859Z,25.60
2018-12-06T18:01:28.430Z,26.10
2018-12-06T18:03:57.386Z,26.73
2018-12-06T18:06:26.019Z,23.27
2018-12-06T18:08:54.904Z,22.47
2018-12-06T18:11:23.912Z,23.93
2018-12-06T18:13:52.543Z,22.17
2018-12-06T18:16:21.130Z,22.40
2018-12-06T18:18:49.671Z,22.70
2018-12-06T18:21:18.303Z,23.83
2018-12-06T18:23:46.909Z,24.27
2018-12-06T18:26:15.484Z,19.63
2018-12-06T18:28:44.038Z,22.37
2018-12-06T18:31:12.568Z,23.87
2018-12-06T18:33:41.277Z,23.60
2018-12-06T18:36:09.879Z,23.47
2018-12-06T18:38:39.339Z,24.13
2018-12-06T18:41:08.326Z,23.27
2018-12-06T18:43:37.831Z,21.77
2018-12-06T18:46:06.431Z,24.77
2018-12-06T18:48:35.015Z,24.37
2018-12-06T18:51:03.740Z,25.53
2018-12-06T18:53:32.358Z,25.60
2018-12-06T18:56:01.147Z,24.67
2018-12-06T18:58:34.383Z,29.80
2018-12-06T19:01:00.545Z,21.83
2018-12-06T19:03:29.540Z,24.17
2018-12-06T19:05:58.134Z,22.50
2018-12-06T19:08:27.036Z,21.17
2018-12-06T19:10:55.848Z,27.80
2018-12-06T19:13:24.494Z,23.10
2018-12-06T19:15:53.104Z,30.60
2018-12-06T19:18:21.683Z,20.53
2018-12-06T19:20:50.290Z,23.80
2018-12-06T19:23:19.715Z,23.03
2018-12-06T19:25:48.339Z,22.87
2018-12-06T19:28:16.925Z,18.47
2018-12-06T19:30:45.598Z,18.10
2018-12-06T19:33:14.367Z,23.43
2018-12-06T19:35:42.916Z,20.77
2018-12-06T19:38:12.163Z,21.80
2018-12-06T19:40:40.684Z,18.03
2018-12-06T19:43:09.292Z,19.27
2018-12-06T19:45:37.966Z,22.20
2018-12-06T19:48:06.564Z,20.40
2018-12-06T19:50:35.215Z,25.87
2018-12-06T19:53:03.835Z,19.83
2018-12-06T19:55:33.488Z,19.87
2018-12-06T19:58:02.194Z,21.33
2018-12-06T20:00:30.732Z,19.03
2018-12-06T20:02:59.279Z,21.33
2018-12-06T20:05:27.833Z,18.57
2018-12-06T20:07:56.527Z,17.27
2018-12-06T20:10:25.195Z,22.73
2018-12-06T20:12:53.743Z,18.70
2018-12-06T20:15:22.520Z,25.27
2018-12-06T20:17:51.073Z,20.57
2018-12-06T20:20:23.547Z,25.83
2018-12-06T20:22:50.309Z,27.90
2018-12-06T20:25:18.843Z,24.03
2018-12-06T20:27:47.573Z,24.43
2018-12-06T20:30:16.173Z,23.93
2018-12-06T20:32:44.741Z,22.70
2018-12-06T20:35:14.341Z,26.53
2018-12-06T20:37:43.147Z,22.67
2018-12-06T20:40:12.793Z,22.60
2018-12-06T20:42:41.779Z,25.73
2018-12-06T20:45:10.466Z,23.50
2018-12-06T20:47:39.139Z,26.50
2018-12-06T20:50:08.049Z,29.23
2018-12-06T20:52:36.661Z,30.10
2018-12-06T20:55:06.009Z,27.33
2018-12-06T20:57:37.337Z,31.47
2018-12-06T21:00:06.478Z,26.67
2018-12-06T21:02:35.098Z,25.93
2018-12-06T21:05:03.667Z,34.63
2018-12-06T21:07:32.279Z,33.77
2018-12-06T21:10:00.951Z,33.20
2018-12-06T21:12:29.525Z,27.83
2018-12-06T21:14:58.159Z,26.00
2018-12-06T21:17:26.690Z,25.13
2018-12-06T21:19:55.282Z,25.80
2018-12-06T21:22:23.883Z,26.43
2018-12-06T21:24:52.469Z,25.70
2018-12-06T21:27:21.059Z,24.80
2018-12-06T21:29:49.757Z,27.50
2018-12-06T21:32:18.393Z,29.27
2018-12-06T21:34:46.947Z,24.80
2018-12-06T21:37:15.640Z,26.07
2018-12-06T21:39:44.204Z,28.27
2018-12-06T21:42:12.934Z,26.10
2018-12-06T21:44:41.533Z,26.77
2018-12-06T21:47:12.278Z,29.70
2018-12-06T21:49:40.882Z,26.10
2018-12-06T21:52:09.547Z,27.50
2018-12-06T21:54:38.372Z,24.53
2018-12-06T21:57:06.990Z,27.00
2018-12-06T21:59:36.473Z,25.80
2018-12-06T22:02:16.264Z,31.00
2018-12-06T22:04:44.970Z,32.97
2018-12-06T22:07:13.595Z,34.47
2018-12-06T22:09:42.250Z,30.57
2018-12-06T22:12:10.946Z,34.57
2018-12-06T22:14:39.649Z,33.07
2018-12-06T22:17:08.426Z,30.73
2018-12-06T22:19:37.302Z,32.47
2018-12-06T22:22:06.329Z,29.90
2018-12-06T22:24:34.872Z,31.07
2018-12-06T22:27:03.683Z,28.53
2018-12-06T22:29:32.334Z,29.33
2018-12-06T22:32:01.314Z,24.47
2018-12-06T22:34:30.338Z,23.43
2018-12-06T22:36:59.109Z,26.13
2018-12-06T22:39:28.496Z,22.90
2018-12-06T22:41:57.130Z,22.63
2018-12-06T22:44:26.391Z,23.50
2018-12-06T22:46:55.087Z,23.87
2018-12-06T22:49:24.000Z,19.67
2018-12-06T22:51:52.644Z,24.47
2018-12-06T22:54:21.230Z,21.47
2018-12-06T22:56:49.782Z,20.97
2018-12-06T22:59:18.318Z,23.20
2018-12-06T23:01:46.931Z,22.03
2018-12-06T23:04:15.517Z,22.27
2018-12-06T23:06:44.351Z,19.10
2018-12-06T23:09:14.072Z,23.77
2018-12-06T23:11:43.535Z,20.53
2018-12-06T23:14:13.916Z,20.63
2018-12-06T23:16:42.547Z,22.20
2018-12-06T23:19:11.099Z,18.63
2018-12-06T23:21:39.634Z,19.90
2018-12-06T23:24:08.212Z,20.20
2018-12-06T23:26:36.747Z,25.03
2018-12-06T23:29:05.336Z,22.47
2018-12-06T23:31:33.879Z,21.70
2018-12-06T23:34:02.728Z,20.87
2018-12-06T23:36:31.265Z,23.70
2018-12-06T23:38:59.938Z,20.03
2018-12-06T23:41:28.541Z,19.73
2018-12-06T23:43:57.133Z,18.60
2018-12-06T23:46:25.760Z,20.63
2018-12-06T23:48:54.406Z,22.43
2018-12-06T23:51:37.486Z,19.20
2018-12-06T23:54:06.113Z,23.13
2018-12-06T23:56:34.802Z,21.33
2018-12-06T23:59:03.599Z,19.10
